Time,TemperatureF,DewpointF,PressureIn,WindDirection,WindDirectionDegrees,WindSpeedMPH,WindSpeedGustMPH,Humidity,HourlyPrecipIn,Conditions,Clouds,dailyrainin,SoftwareType,DateUTC
2013-04-20 00:05:00,38.5,29.1,30.19,SE,135,6.7,7.1,69,0.00,,,0.00,WUHU21636XXSP,2013-04-20 05:05:00,
2013-04-20 00:15:00,38.5,29.1,30.19,SE,135,0.4,6.7,69,0.00,,,0.00,WUHU21636XXSP,2013-04-20 05:15:00,
2013-04-20 00:25:00,38.5,29.1,30.19,SE,135,4.2,8.5,69,0.00,,,0.00,WUHU21636XXSP,2013-04-20 05:25:00,
2013-04-20 00:35:00,38.5,29.1,30.19,ESE,112,4.2,10.0,69,0.00,,,0.00,WUHU21636XXSP,2013-04-20 05:35:00,
2013-04-20 00:45:00,38.5,29.1,30.19,ESE,112,2.9,7.3,69,0.00,,,0.00,WUHU21636XXSP,2013-04-20 05:45:00,
2013-04-20 00:55:00,38.5,29.5,30.19,SE,135,4.6,8.2,70,0.00,,,0.00,WUHU21636XXSP,2013-04-20 05:55:00,
2013-04-20 01:05:00,38.5,29.5,30.19,SE,135,3.3,7.6,70,0.00,,,0.00,WUHU21636XXSP,2013-04-20 06:05:00,
2013-04-20 01:15:00,38.5,29.5,30.19,SSE,157,5.1,5.3,70,0.00,,,0.00,WUHU21636XXSP,2013-04-20 06:15:00,
2013-04-20 01:25:00,38.5,29.5,30.18,SE,135,4.4,9.8,70,0.00,,,0.00,WUHU21636XXSP,2013-04-20 06:25:00,
2013-04-20 01:35:00,38.5,29.1,30.18,SE,135,5.5,10.2,69,0.00,,,0.00,WUHU21636XXSP,2013-04-20 06:35:00,
2013-04-20 01:45:00,38.7,29.3,30.18,SE,135,4.6,10.5,69,0.00,,,0.00,WUHU21636XXSP,2013-04-20 06:45:00,
2013-04-20 01:55:00,38.7,29.3,30.19,SE,135,5.8,11.6,69,0.00,,,0.00,WUHU21636XXSP,2013-04-20 06:55:00,
2013-04-20 02:05:00,38.7,29.3,30.19,SE,135,10.2,10.9,69,0.00,,,0.00,WUHU21636XXSP,2013-04-20 07:05:00,
2013-04-20 02:15:00,38.7,29.3,30.19,SSE,157,3.5,10.9,69,0.00,,,0.00,WUHU21636XXSP,2013-04-20 07:15:00,
2013-04-20 02:25:00,38.5,29.1,30.19,SE,135,6.0,8.2,69,0.00,,,0.00,WUHU21636XXSP,2013-04-20 07:25:00,
2013-04-20 02:35:00,38.5,29.1,30.18,SE,135,4.9,9.1,69,0.00,,,0.00,WUHU21636XXSP,2013-04-20 07:35:00,
2013-04-20 02:45:00,38.3,28.9,30.19,SE,135,1.1,4.9,69,0.00,,,0.00,WUHU21636XXSP,2013-04-20 07:45:00,
2013-04-20 02:55:00,38.3,28.9,30.19,SE,135,1.5,2.9,69,0.00,,,0.00,WUHU21636XXSP,2013-04-20 07:55:00,
2013-04-20 03:05:00,38.3,28.9,30.18,SE,135,3.1,3.1,69,0.00,,,0.00,WUHU21636XXSP,2013-04-20 08:05:00,
2013-04-20 03:15:00,38.1,29.1,30.18,SE,135,5.8,9.8,70,0.00,,,0.00,WUHU21636XXSP,2013-04-20 08:15:00,
2013-04-20 03:25:00,38.1,28.8,30.18,SE,135,5.1,8.7,69,0.00,,,0.00,WUHU21636XXSP,2013-04-20 08:25:00,
2013-04-20 03:35:00,37.9,28.6,30.18,SE,135,4.6,8.5,69,0.00,,,0.00,WUHU21636XXSP,2013-04-20 08:35:00,
2013-04-20 03:45:00,37.9,28.6,30.17,SE,135,2.9,9.6,69,0.00,,,0.00,WUHU21636XXSP,2013-04-20 08:45:00,
2013-04-20 03:55:00,37.6,28.6,30.17,SE,135,5.1,9.1,70,0.00,,,0.00,WUHU21636XXSP,2013-04-20 08:55:00,
2013-04-20 04:05:00,37.6,28.6,30.17,SE,135,4.2,5.1,70,0.00,,,0.00,WUHU21636XXSP,2013-04-20 09:05:00,
2013-04-20 04:15:00,37.2,28.6,30.17,SE,135,3.3,12.0,71,0.00,,,0.00,WUHU21636XXSP,2013-04-20 09:15:00,
2013-04-20 04:25:00,37.2,28.6,30.17,SE,135,5.1,9.3,71,0.00,,,0.00,WUHU21636XXSP,2013-04-20 09:25:00,
2013-04-20 04:35:00,37.0,28.4,30.16,ESE,112,5.8,15.8,71,0.00,,,0.00,WUHU21636XXSP,2013-04-20 09:35:00,
2013-04-20 04:45:00,36.9,28.2,30.16,SE,135,8.9,12.7,71,0.00,,,0.00,WUHU21636XXSP,2013-04-20 09:45:00,
2013-04-20 04:55:00,36.7,28.4,30.16,SE,135,2.9,10.2,72,0.00,,,0.00,WUHU21636XXSP,2013-04-20 09:55:00,
2013-04-20 05:05:00,36.1,27.9,30.16,SE,135,10.0,14.3,72,0.00,,,0.00,WUHU21636XXSP,2013-04-20 10:05:00,
2013-04-20 05:15:00,35.8,27.9,30.16,SE,135,2.6,15.4,73,0.00,,,0.00,WUHU21636XXSP,2013-04-20 10:15:00,
2013-04-20 05:25:00,35.6,27.7,30.15,SE,135,3.3,4.4,73,0.00,,,0.00,WUHU21636XXSP,2013-04-20 10:25:00,
2013-04-20 05:35:00,35.2,27.7,30.16,SE,135,4.0,12.3,74,0.00,,,0.00,WUHU21636XXSP,2013-04-20 10:35:00,
2013-04-20 05:45:00,35.2,27.3,30.15,ESE,112,4.2,12.5,73,0.00,,,0.00,WUHU21636XXSP,2013-04-20 10:45:00,
2013-04-20 05:55:00,35.1,27.5,30.15,SSE,157,4.4,10.7,74,0.00,,,0.00,WUHU21636XXSP,2013-04-20 10:55:00,
2013-04-20 06:05:00,34.9,27.3,30.15,SE,135,6.0,12.5,74,0.00,,,0.00,WUHU21636XXSP,2013-04-20 11:05:00,
2013-04-20 06:15:00,34.7,27.1,30.15,SE,135,3.3,10.9,74,0.00,,,0.00,WUHU21636XXSP,2013-04-20 11:15:00,
2013-04-20 06:25:00,34.5,27.3,30.16,SE,135,5.8,15.2,75,0.00,,,0.00,WUHU21636XXSP,2013-04-20 11:25:00,
2013-04-20 06:35:00,34.5,27.3,30.16,SE,135,4.0,6.0,75,0.00,,,0.00,WUHU21636XXSP,2013-04-20 11:35:00,
2013-04-20 06:45:00,34.5,27.3,30.16,ESE,112,3.5,8.5,75,0.00,,,0.00,WUHU21636XXSP,2013-04-20 11:45:00,
2013-04-20 06:55:00,34.3,27.1,30.16,SE,135,5.5,9.1,75,0.00,,,0.00,WUHU21636XXSP,2013-04-20 11:55:00,
2013-04-20 07:05:00,34.0,27.0,30.16,ESE,112,6.4,11.8,76,0.00,,,0.00,WUHU21636XXSP,2013-04-20 12:05:00,
2013-04-20 07:15:00,33.6,26.6,30.17,SE,135,8.0,11.4,76,0.00,,,0.00,WUHU21636XXSP,2013-04-20 12:15:00,
2013-04-20 07:25:00,33.6,26.6,30.17,ESE,112,4.6,10.2,76,0.00,,,0.00,WUHU21636XXSP,2013-04-20 12:25:00,
2013-04-20 07:35:00,33.4,26.6,30.17,ESE,112,9.6,13.1,76,0.00,,,0.00,WUHU21636XXSP,2013-04-20 12:35:00,
2013-04-20 07:45:00,33.1,26.2,30.17,ESE,112,7.3,17.6,76,0.00,,,0.00,WUHU21636XXSP,2013-04-20 12:45:00,
2013-04-20 07:55:00,32.9,26.1,30.18,SE,135,5.5,14.5,76,0.00,,,0.00,WUHU21636XXSP,2013-04-20 12:55:00,
2013-04-20 08:05:00,32.9,26.1,30.18,SE,135,4.6,17.8,76,0.00,,,0.00,WUHU21636XXSP,2013-04-20 13:05:00,
2013-04-20 08:15:00,32.9,26.1,30.18,ESE,112,8.2,14.0,76,0.00,,,0.00,WUHU21636XXSP,2013-04-20 13:15:00,
2013-04-20 08:25:00,33.4,26.2,30.18,SE,135,10.9,18.3,75,0.00,,,0.00,WUHU21636XXSP,2013-04-20 13:25:00,
2013-04-20 08:35:00,33.6,26.1,30.19,SE,135,8.5,18.3,74,0.00,,,0.00,WUHU21636XXSP,2013-04-20 13:35:00,
2013-04-20 08:45:00,34.5,26.6,30.19,ESE,112,15.4,21.2,73,0.00,,,0.00,WUHU21636XXSP,2013-04-20 13:45:00,
2013-04-20 08:55:00,34.7,26.1,30.19,SE,135,9.6,21.4,71,0.00,,,0.00,WUHU21636XXSP,2013-04-20 13:55:00,
2013-04-20 09:05:00,35.2,26.4,30.18,SE,135,10.5,25.2,70,0.00,,,0.00,WUHU21636XXSP,2013-04-20 14:05:00,
2013-04-20 09:15:00,36.1,26.4,30.18,SSE,157,8.0,21.6,68,0.00,,,0.00,WUHU21636XXSP,2013-04-20 14:15:00,
2013-04-20 09:25:00,36.5,26.8,30.18,SE,135,8.2,19.9,68,0.00,,,0.00,WUHU21636XXSP,2013-04-20 14:25:00,
2013-04-20 09:35:00,36.7,26.2,30.19,SE,135,8.0,21.2,66,0.00,,,0.00,WUHU21636XXSP,2013-04-20 14:35:00,
2013-04-20 09:45:00,37.6,27.1,30.19,SE,135,8.5,22.8,66,0.00,,,0.00,WUHU21636XXSP,2013-04-20 14:45:00,
2013-04-20 09:55:00,38.5,27.5,30.19,SSE,157,9.3,22.1,66,0.00,,,0.00,WUHU21636XXSP,2013-04-20 14:55:00,
2013-04-20 10:05:00,39.6,28.2,30.19,ESE,112,10.5,21.2,64,0.00,,,0.00,WUHU21636XXSP,2013-04-20 15:05:00,
2013-04-20 10:15:00,39.9,28.2,30.19,SE,135,14.5,21.0,63,0.00,,,0.00,WUHU21636XXSP,2013-04-20 15:15:00,
2013-04-20 10:25:00,40.6,28.6,30.19,SE,135,12.3,22.1,62,0.00,,,0.00,WUHU21636XXSP,2013-04-20 15:25:00,
2013-04-20 10:35:00,41.2,28.8,30.19,ESE,112,12.7,20.8,61,0.00,,,0.00,WUHU21636XXSP,2013-04-20 15:35:00,
2013-04-20 10:45:00,41.7,28.8,30.19,SE,135,11.4,21.6,60,0.00,,,0.00,WUHU21636XXSP,2013-04-20 15:45:00,
2013-04-20 10:55:00,42.6,30.0,30.19,ESE,112,6.9,22.3,61,0.00,,,0.00,WUHU21636XXSP,2013-04-20 15:55:00,
2013-04-20 11:05:00,43.3,29.8,30.19,East,90,10.2,19.9,59,0.00,,,0.00,WUHU21636XXSP,2013-04-20 16:05:00,
2013-04-20 11:15:00,43.9,30.4,30.18,ESE,112,9.8,22.8,59,0.00,,,0.00,WUHU21636XXSP,2013-04-20 16:15:00,
2013-04-20 11:25:00,43.9,29.5,30.18,SE,135,12.3,26.6,57,0.00,,,0.00,WUHU21636XXSP,2013-04-20 16:25:00,
2013-04-20 11:35:00,44.4,30.6,30.18,SE,135,7.1,29.9,58,0.00,,,0.00,WUHU21636XXSP,2013-04-20 16:35:00,
2013-04-20 11:45:00,45.7,31.1,30.18,ESE,112,16.7,23.7,57,0.00,,,0.00,WUHU21636XXSP,2013-04-20 16:45:00,
2013-04-20 11:55:00,46.6,31.5,30.18,East,90,11.6,27.0,56,0.00,,,0.00,WUHU21636XXSP,2013-04-20 16:55:00,
2013-04-20 12:05:00,47.1,31.6,30.18,SSE,157,12.9,24.8,55,0.00,,,0.00,WUHU21636XXSP,2013-04-20 17:05:00,
2013-04-20 12:15:00,46.6,31.1,30.17,SSE,157,14.7,26.3,55,0.00,,,0.00,WUHU21636XXSP,2013-04-20 17:15:00,
2013-04-20 12:25:00,46.4,30.9,30.16,SSE,157,12.0,23.7,55,0.00,,,0.00,WUHU21636XXSP,2013-04-20 17:25:00,
2013-04-20 12:35:00,46.6,31.1,30.16,ESE,112,12.0,25.7,55,0.00,,,0.00,WUHU21636XXSP,2013-04-20 17:35:00,
2013-04-20 12:45:00,47.1,30.7,30.16,SE,135,16.7,25.0,53,0.00,,,0.00,WUHU21636XXSP,2013-04-20 17:45:00,
2013-04-20 12:55:00,47.8,32.4,30.15,SSE,157,11.4,29.7,55,0.00,,,0.00,WUHU21636XXSP,2013-04-20 17:55:00,
2013-04-20 13:05:00,49.1,33.1,30.15,SSE,157,13.1,25.2,54,0.00,,,0.00,WUHU21636XXSP,2013-04-20 18:05:00,
2013-04-20 13:15:00,50.2,33.6,30.14,SSE,157,13.8,24.8,53,0.00,,,0.00,WUHU21636XXSP,2013-04-20 18:15:00,
2013-04-20 13:25:00,50.9,33.4,30.14,ESE,112,19.6,33.3,51,0.00,,,0.00,WUHU21636XXSP,2013-04-20 18:25:00,
2013-04-20 13:35:00,51.4,33.4,30.13,SSE,157,13.4,25.2,50,0.00,,,0.00,WUHU21636XXSP,2013-04-20 18:35:00,
2013-04-20 13:45:00,52.3,34.7,30.13,SE,135,9.1,24.6,51,0.00,,,0.00,WUHU21636XXSP,2013-04-20 18:45:00,
2013-04-20 13:55:00,52.9,34.2,30.13,SE,135,8.9,23.4,49,0.00,,,0.00,WUHU21636XXSP,2013-04-20 18:55:00,
2013-04-20 14:05:00,52.5,34.3,30.13,SE,135,6.9,23.7,50,0.00,,,0.00,WUHU21636XXSP,2013-04-20 19:05:00,
2013-04-20 14:15:00,53.2,35.4,30.12,SSE,157,9.8,21.9,51,0.00,,,0.00,WUHU21636XXSP,2013-04-20 19:15:00,
2013-04-20 14:25:00,54.3,36.9,30.12,SE,135,7.8,23.2,52,0.00,,,0.00,WUHU21636XXSP,2013-04-20 19:25:00,
2013-04-20 14:36:00,54.3,34.9,30.12,ESE,112,13.1,26.1,48,0.00,,,0.00,WUHU21636XXSP,2013-04-20 19:36:00,
2013-04-20 14:46:00,55.0,37.6,30.12,SSE,157,13.4,22.3,52,0.00,,,0.00,WUHU21636XXSP,2013-04-20 19:46:00,
2013-04-20 14:56:00,55.6,36.0,30.12,ESE,112,7.3,24.6,48,0.00,,,0.00,WUHU21636XXSP,2013-04-20 19:56:00,
2013-04-20 15:06:00,55.8,36.7,30.11,SSE,157,16.3,21.6,49,0.00,,,0.00,WUHU21636XXSP,2013-04-20 20:06:00,
2013-04-20 15:16:00,55.9,36.3,30.12,SE,135,6.2,27.0,48,0.00,,,0.00,WUHU21636XXSP,2013-04-20 20:16:00,
2013-04-20 15:26:00,56.5,37.4,30.11,SSE,157,16.1,24.8,49,0.00,,,0.00,WUHU21636XXSP,2013-04-20 20:26:00,
2013-04-20 15:36:00,56.8,36.1,30.12,ESE,112,10.0,23.0,46,0.00,,,0.00,WUHU21636XXSP,2013-04-20 20:36:00,
2013-04-20 15:46:00,57.0,37.4,30.12,ESE,112,14.7,22.8,48,0.00,,,0.00,WUHU21636XXSP,2013-04-20 20:46:00,
2013-04-20 15:56:00,57.6,37.4,30.11,South,180,10.7,22.5,47,0.00,,,0.00,WUHU21636XXSP,2013-04-20 20:56:00,
2013-04-20 16:06:00,57.9,37.8,30.11,SE,135,8.7,22.1,47,0.00,,,0.00,WUHU21636XXSP,2013-04-20 21:06:00,
2013-04-20 16:16:00,58.3,39.2,30.11,ESE,112,1.7,20.3,49,0.00,,,0.00,WUHU21636XXSP,2013-04-20 21:16:00,
2013-04-20 16:26:00,58.6,38.3,30.11,SE,135,9.6,21.0,47,0.00,,,0.00,WUHU21636XXSP,2013-04-20 21:26:00,
2013-04-20 16:36:00,59.0,38.7,30.11,SE,135,10.5,23.4,47,0.00,,,0.00,WUHU21636XXSP,2013-04-20 21:36:00,
2013-04-20 16:46:00,59.9,38.8,30.10,SE,135,10.5,18.7,46,0.00,,,0.00,WUHU21636XXSP,2013-04-20 21:46:00,
2013-04-20 16:56:00,60.4,38.3,30.10,SE,135,9.1,20.1,44,0.00,,,0.00,WUHU21636XXSP,2013-04-20 21:56:00,
2013-04-20 17:06:00,61.0,38.1,30.10,South,180,7.6,21.2,43,0.00,,,0.00,WUHU21636XXSP,2013-04-20 22:06:00,
2013-04-20 17:16:00,60.4,36.5,30.09,SE,135,17.6,22.8,41,0.00,,,0.00,WUHU21636XXSP,2013-04-20 22:16:00,
2013-04-20 17:26:00,61.0,39.2,30.09,South,180,6.4,19.2,45,0.00,,,0.00,WUHU21636XXSP,2013-04-20 22:26:00,
2013-04-20 17:36:00,61.5,38.1,30.09,SE,135,17.6,21.2,42,0.00,,,0.00,WUHU21636XXSP,2013-04-20 22:36:00,
2013-04-20 17:46:00,61.0,38.1,30.10,SE,135,3.5,22.1,43,0.00,,,0.00,WUHU21636XXSP,2013-04-20 22:46:00,
2013-04-20 17:56:00,60.6,38.3,30.10,South,180,4.0,24.8,44,0.00,,,0.00,WUHU21636XXSP,2013-04-20 22:56:00,
2013-04-20 18:06:00,60.4,37.6,30.10,SE,135,7.3,19.2,43,0.00,,,0.00,WUHU21636XXSP,2013-04-20 23:06:00,
2013-04-20 18:16:00,60.1,37.4,30.10,SSE,157,8.2,18.5,43,0.00,,,0.00,WUHU21636XXSP,2013-04-20 23:16:00,
2013-04-20 18:26:00,59.7,37.0,30.10,SE,135,11.4,15.2,43,0.00,,,0.00,WUHU21636XXSP,2013-04-20 23:26:00,
2013-04-20 18:36:00,59.4,37.2,30.10,SSE,157,9.6,16.3,44,0.00,,,0.00,WUHU21636XXSP,2013-04-20 23:36:00,
2013-04-20 18:46:00,59.0,36.3,30.10,South,180,5.5,16.3,43,0.00,,,0.00,WUHU21636XXSP,2013-04-20 23:46:00,
2013-04-20 18:56:00,59.0,36.9,30.10,SE,135,2.9,16.3,44,0.00,,,0.00,WUHU21636XXSP,2013-04-20 23:56:00,
2013-04-20 19:06:00,58.3,36.9,30.10,SE,135,9.8,17.2,45,0.00,,,0.00,WUHU21636XXSP,2013-04-21 00:06:00,
2013-04-20 19:16:00,57.9,37.0,30.10,SE,135,6.7,16.7,46,0.00,,,0.00,WUHU21636XXSP,2013-04-21 00:16:00,
2013-04-20 19:26:00,57.4,37.2,30.10,ESE,112,8.9,19.2,47,0.00,,,0.00,WUHU21636XXSP,2013-04-21 00:26:00,
2013-04-20 19:36:00,56.5,36.9,30.11,SE,135,14.0,20.5,48,0.00,,,0.00,WUHU21636XXSP,2013-04-21 00:36:00,
2013-04-20 19:46:00,55.8,36.7,30.11,ESE,112,9.8,22.3,49,0.00,,,0.00,WUHU21636XXSP,2013-04-21 00:46:00,
2013-04-20 19:56:00,55.2,36.3,30.11,SSE,157,9.3,21.6,49,0.00,,,0.00,WUHU21636XXSP,2013-04-21 00:56:00,
2013-04-20 20:06:00,54.7,36.3,30.11,ESE,112,9.1,18.1,50,0.00,,,0.00,WUHU21636XXSP,2013-04-21 01:06:00,
2013-04-20 20:16:00,53.8,36.0,30.12,SE,135,7.3,17.6,51,0.00,,,0.00,WUHU21636XXSP,2013-04-21 01:16:00,
2013-04-20 20:26:00,53.1,36.3,30.12,SE,135,11.4,18.5,53,0.00,,,0.00,WUHU21636XXSP,2013-04-21 01:26:00,
2013-04-20 20:36:00,52.3,36.0,30.13,ESE,112,3.3,12.7,54,0.00,,,0.00,WUHU21636XXSP,2013-04-21 01:36:00,
2013-04-20 20:46:00,51.4,35.6,30.13,ESE,112,3.5,15.2,55,0.00,,,0.00,WUHU21636XXSP,2013-04-21 01:46:00,
2013-04-20 20:56:00,50.7,35.1,30.14,ESE,112,7.1,12.9,55,0.00,,,0.00,WUHU21636XXSP,2013-04-21 01:56:00,
2013-04-20 21:06:00,50.4,35.1,30.14,ESE,112,6.7,14.5,56,0.00,,,0.00,WUHU21636XXSP,2013-04-21 02:06:00,
2013-04-20 21:16:00,49.8,35.1,30.14,ESE,112,6.9,12.0,57,0.00,,,0.00,WUHU21636XXSP,2013-04-21 02:16:00,
2013-04-20 21:26:00,49.3,35.1,30.14,East,90,7.3,11.1,58,0.00,,,0.00,WUHU21636XXSP,2013-04-21 02:26:00,
2013-04-20 21:36:00,48.7,35.1,30.15,ESE,112,6.4,15.6,59,0.00,,,0.00,WUHU21636XXSP,2013-04-21 02:36:00,
2013-04-20 21:46:00,48.4,35.1,30.16,SE,135,6.9,14.3,60,0.00,,,0.00,WUHU21636XXSP,2013-04-21 02:46:00,
2013-04-20 21:56:00,48.0,34.9,30.16,East,90,3.3,7.6,60,0.00,,,0.00,WUHU21636XXSP,2013-04-21 02:56:00,
2013-04-20 22:06:00,47.8,35.1,30.16,ESE,112,6.4,14.3,61,0.00,,,0.00,WUHU21636XXSP,2013-04-21 03:06:00,
2013-04-20 22:16:00,47.5,35.1,30.16,ESE,112,5.3,15.2,62,0.00,,,0.00,WUHU21636XXSP,2013-04-21 03:16:00,
2013-04-20 22:26:00,47.1,34.7,30.16,ESE,112,7.8,12.5,62,0.00,,,0.00,WUHU21636XXSP,2013-04-21 03:26:00,
2013-04-20 22:36:00,46.6,34.5,30.16,East,90,10.5,16.1,63,0.00,,,0.00,WUHU21636XXSP,2013-04-21 03:36:00,
2013-04-20 22:46:00,46.2,34.5,30.16,ESE,112,5.5,13.6,64,0.00,,,0.00,WUHU21636XXSP,2013-04-21 03:46:00,
2013-04-20 22:56:00,45.9,34.7,30.16,East,90,4.2,14.7,65,0.00,,,0.00,WUHU21636XXSP,2013-04-21 03:56:00,
2013-04-20 23:06:00,45.5,34.3,30.16,ESE,112,6.7,11.6,65,0.00,,,0.00,WUHU21636XXSP,2013-04-21 04:06:00,
2013-04-20 23:16:00,45.0,33.8,30.16,East,90,6.4,13.1,65,0.00,,,0.00,WUHU21636XXSP,2013-04-21 04:16:00,
2013-04-20 23:26:00,44.4,34.0,30.16,ESE,112,4.0,10.9,67,0.00,,,0.00,WUHU21636XXSP,2013-04-21 04:26:00,
2013-04-20 23:36:00,44.2,33.8,30.15,East,90,8.0,12.5,67,0.00,,,0.00,WUHU21636XXSP,2013-04-21 04:36:00,
2013-04-20 23:46:00,43.7,33.8,30.15,East,90,4.2,10.2,68,0.00,,,0.00,WUHU21636XXSP,2013-04-21 04:46:00,
2013-04-20 23:56:00,43.3,33.4,30.15,ESE,112,6.2,8.2,68,0.00,,,0.00,WUHU21636XXSP,2013-04-21 04:56:00,